Time;durP1;ratioP1;P1;durP2;ratioP2;P2;SDS_P1;SDS_P2;PMS_P1;PMS_P2;Temp;Humidity;BMP_temperature;BMP_pressure;BME280_temperature;BME280_humidity;BME280_pressure;Samples;Min_cycle;Max_cycle;Signal;HPM_P1;HPM_P2
2021/04/22 00:01:13;;;;;;;13.02;9.02;;;10.10;67.70;;;8.92;62.72;95993.41;5024660;28;20033;-69
2021/04/22 00:03:39;;;;;;;13.23;9.63;;;10.30;67.20;;;8.94;62.70;95987.97;5009751;28;20568;-70
2021/04/22 00:06:05;;;;;;;12.43;9.43;;;10.40;66.60;;;8.96;62.28;95981.56;5027451;28;20171;-70
2021/04/22 00:08:30;;;;;;;13.57;10.00;;;10.40;66.30;;;8.92;62.38;95972.41;5029596;28;20389;-70
2021/04/22 00:10:56;;;;;;;12.20;9.73;;;10.30;66.60;;;8.91;62.96;95970.78;5014269;28;20057;-71
2021/04/22 00:13:25;;;;;;;12.68;9.48;;;10.20;66.90;;;8.90;63.36;95961.28;5024256;28;20132;-70
2021/04/22 00:15:52;;;;;;;13.77;9.75;;;10.20;67.10;;;8.87;62.64;95957.22;5008248;28;20030;-71
2021/04/22 00:18:17;;;;;;;13.20;8.88;;;10.20;67.30;;;8.90;63.22;95961.28;5010758;28;20075;-70
2021/04/22 00:20:43;;;;;;;14.00;10.00;;;10.30;67.20;;;8.94;63.12;95965.19;4974609;28;20037;-71
2021/04/22 00:23:13;;;;;;;14.30;9.40;;;10.50;67.30;;;8.97;65.42;95956.94;4993208;28;20145;-70
2021/04/22 00:25:42;;;;;;;12.55;9.38;;;10.50;67.40;;;9.00;63.19;95953.94;4992589;28;20091;-70
2021/04/22 00:28:09;;;;;;;12.30;9.25;;;10.60;67.10;;;9.06;63.81;95955.06;4992910;28;20804;-71
2021/04/22 00:30:35;;;;;;;14.85;9.50;;;10.60;66.80;;;9.12;63.61;95955.13;5009208;28;21565;-71
2021/04/22 00:33:09;;;;;;;12.07;9.50;;;10.70;66.70;;;9.17;65.69;95958.00;4991313;28;20410;-71
2021/04/22 00:35:35;;;;;;;12.32;9.70;;;10.80;66.70;;;9.21;63.63;95955.81;5023648;28;20136;-71
2021/04/22 00:38:02;;;;;;;12.95;9.57;;;10.90;66.30;;;9.24;63.55;95957.25;5007383;28;20041;-71
2021/04/22 00:40:28;;;;;;;15.02;10.15;;;10.90;66.40;;;9.26;63.32;95947.41;4994486;28;20037;-70
2021/04/22 00:42:54;;;;;;;12.38;9.80;;;10.90;66.50;;;9.27;63.49;95941.16;5025040;28;20056;-71
2021/04/22 00:45:20;;;;;;;13.13;9.80;;;10.90;66.50;;;9.29;63.53;95941.81;4993976;28;20029;-69
2021/04/22 00:47:46;;;;;;;13.02;10.05;;;10.90;66.60;;;9.32;63.96;95944.88;5008014;28;20056;-70
2021/04/22 00:50:16;;;;;;;15.07;10.13;;;11.00;66.50;;;9.33;64.58;95940.44;5010005;28;20036;-71
2021/04/22 00:52:42;;;;;;;12.50;9.55;;;11.00;66.40;;;9.33;64.04;95943.88;4998210;28;20485;-70
2021/04/22 00:55:08;;;;;;;14.40;10.00;;;10.90;66.20;;;9.33;63.50;95948.31;4993010;28;20045;-71
2021/04/22 00:57:35;;;;;;;12.75;10.18;;;10.90;66.40;;;9.28;64.23;95945.41;5008980;28;20044;-71
2021/04/22 01:00:00;;;;;;;13.77;9.80;;;10.90;66.40;;;9.22;64.00;95939.06;5010754;28;20083;-71
2021/04/22 01:02:26;;;;;;;17.50;11.15;;;10.80;66.50;;;9.18;63.94;95941.25;5023949;28;20124;-71
2021/04/22 01:04:52;;;;;;;19.38;10.70;;;10.80;66.50;;;9.17;63.61;95947.50;4991538;28;20038;-70
2021/04/22 01:07:18;;;;;;;13.35;9.77;;;10.80;66.50;;;9.16;63.89;95956.38;5022806;28;20040;-70
2021/04/22 01:09:44;;;;;;;13.73;10.52;;;10.70;66.60;;;9.13;64.12;95956.75;5010234;28;20030;-71
2021/04/22 01:12:11;;;;;;;11.65;9.88;;;10.70;66.80;;;9.08;64.42;95959.13;5028345;28;20095;-69
2021/04/22 01:14:37;;;;;;;13.10;10.60;;;10.60;66.90;;;9.03;64.06;95956.22;5020101;28;20124;-71
2021/04/22 01:17:03;;;;;;;15.57;10.20;;;10.60;66.90;;;8.98;64.52;95948.06;5026043;28;20057;-70
2021/04/22 01:19:29;;;;;;;15.07;10.77;;;10.50;67.10;;;8.94;64.38;95949.44;5007797;28;20088;-71
2021/04/22 01:21:55;;;;;;;14.57;10.57;;;10.50;67.20;;;8.91;64.45;95957.69;5038144;28;20052;-70
2021/04/22 01:24:21;;;;;;;13.52;10.27;;;10.40;67.20;;;8.86;64.48;95968.72;5026926;28;20033;-71
2021/04/22 01:26:46;;;;;;;13.57;10.30;;;10.40;67.40;;;8.83;64.17;95960.41;5025418;28;20065;-71
2021/04/22 01:29:12;;;;;;;13.70;9.98;;;10.40;67.40;;;8.79;64.91;95980.91;5024833;28;20123;-71
2021/04/22 01:31:38;;;;;;;16.38;10.02;;;10.40;67.30;;;8.72;64.64;95987.88;4977424;28;20033;-71
2021/04/22 01:34:06;;;;;;;13.68;10.30;;;10.20;67.70;;;8.66;65.09;95980.75;5027205;28;20038;-71
2021/04/22 01:36:41;;;;;;;14.18;11.13;;;10.10;68.20;;;8.60;66.93;95986.72;5026103;28;20052;-71
2021/04/22 01:39:10;;;;;;;17.45;11.32;;;10.10;68.30;;;8.54;65.46;95980.34;5008361;28;20033;-71
2021/04/22 01:41:36;;;;;;;18.50;11.23;;;10.10;68.60;;;8.48;65.20;95983.69;5025257;28;20112;-71
2021/04/22 01:44:01;;;;;;;15.05;10.57;;;10.00;68.90;;;8.45;65.08;95984.06;4993269;28;20045;-71
2021/04/22 01:46:27;;;;;;;12.48;10.50;;;10.00;68.90;;;8.44;65.37;95977.19;4993150;28;20084;-71
2021/04/22 01:48:53;;;;;;;16.10;11.27;;;9.90;69.10;;;8.41;65.22;95972.31;5008922;28;20061;-71
2021/04/22 01:51:20;;;;;;;15.90;11.10;;;9.90;69.10;;;8.39;65.76;95973.47;5009394;28;20056;-71
2021/04/22 01:53:45;;;;;;;14.75;10.68;;;10.00;69.10;;;8.38;65.67;95970.03;5029360;28;20030;-71
2021/04/22 01:56:11;;;;;;;15.73;11.93;;;10.00;69.00;;;8.35;66.07;95967.75;5026502;28;20129;-71
2021/04/22 01:58:37;;;;;;;14.55;11.38;;;10.00;69.00;;;8.33;65.77;95961.84;4973794;28;20120;-72
2021/04/22 02:01:03;;;;;;;14.32;11.15;;;10.00;69.10;;;8.33;65.83;95972.31;5020624;28;20068;-71
2021/04/22 02:03:32;;;;;;;14.05;10.75;;;9.90;69.00;;;8.33;66.87;95974.94;5023532;28;20037;-71
2021/04/22 02:05:59;;;;;;;14.13;10.48;;;9.90;68.80;;;8.32;66.16;95972.50;5008954;28;20045;-70
2021/04/22 02:08:25;;;;;;;14.73;10.48;;;9.90;68.60;;;8.29;66.22;95978.91;5005513;28;20696;-70
2021/04/22 02:10:51;;;;;;;15.82;10.70;;;9.90;68.90;;;8.26;65.64;95979.28;4994491;28;20040;-71
2021/04/22 02:13:18;;;;;;;15.77;11.10;;;9.80;69.10;;;8.20;66.35;95974.75;5010129;28;20120;-71
2021/04/22 02:15:45;;;;;;;14.43;11.00;;;9.80;69.40;;;8.17;66.09;95978.56;4991591;28;20041;-71
2021/04/22 02:18:10;;;;;;;13.90;10.88;;;9.70;69.60;;;8.14;66.32;95967.56;5008349;28;20025;-70
2021/04/22 02:20:36;;;;;;;13.68;10.45;;;9.80;69.40;;;8.10;66.80;95974.16;5022751;28;20037;-72
2021/04/22 02:23:02;;;;;;;15.50;11.00;;;9.70;69.10;;;8.07;66.17;95969.28;4991829;28;20532;-71
2021/04/22 02:25:28;;;;;;;15.07;11.00;;;9.70;69.00;;;8.05;66.01;95971.28;5026903;28;20057;-71
2021/04/22 02:27:54;;;;;;;15.70;11.48;;;9.70;68.90;;;8.02;66.50;95969.00;5025233;28;20033;-70
2021/04/22 02:30:35;;;;;;;14.40;11.23;;;9.70;68.90;;;8.00;67.91;95969.19;5039197;28;20034;-71
2021/04/22 02:33:02;;;;;;;16.63;11.05;;;9.70;68.80;;;7.98;65.94;95966.75;5011089;28;20029;-72
2021/04/22 02:35:30;;;;;;;15.50;11.23;;;9.60;68.60;;;7.94;66.72;95970.72;5008433;28;20050;-71
2021/04/22 02:37:57;;;;;;;14.45;11.00;;;9.60;68.70;;;7.88;66.65;95968.78;5012317;28;20030;-70
2021/04/22 02:40:25;;;;;;;16.27;11.27;;;9.50;68.80;;;7.86;67.26;95970.75;5008434;28;20041;-70
2021/04/22 02:42:52;;;;;;;17.42;11.07;;;9.50;69.00;;;7.82;66.80;95979.94;5027968;28;20040;-71
2021/04/22 02:45:22;;;;;;;14.73;10.45;;;9.50;69.00;;;7.79;66.84;95977.69;5024243;28;20037;-70
2021/04/22 02:47:47;;;;;;;15.32;10.85;;;9.50;68.80;;;7.76;66.63;95975.41;5022262;28;20105;-70
2021/04/22 02:50:17;;;;;;;13.18;10.38;;;9.40;68.50;;;7.73;66.87;95978.38;5008199;28;20056;-71
2021/04/22 02:52:43;;;;;;;13.25;10.25;;;9.40;68.40;;;7.70;66.20;95975.31;5008778;28;20174;-71
2021/04/22 02:55:10;;;;;;;14.65;10.23;;;9.40;68.40;;;7.69;66.39;95969.22;5008933;28;20038;-70
2021/04/22 02:57:35;;;;;;;11.93;9.65;;;9.30;68.50;;;7.70;66.48;95973.50;5022924;28;20037;-71
2021/04/22 03:00:05;;;;;;;13.98;10.32;;;9.30;68.60;;;7.71;67.18;95975.13;5025042;28;20484;-70
2021/04/22 03:02:31;;;;;;;12.55;9.98;;;9.30;68.70;;;7.65;66.75;95971.38;5008746;28;20025;-71
2021/04/22 03:04:57;;;;;;;14.23;10.32;;;9.20;68.70;;;7.64;66.58;95979.41;5023260;28;20026;-70
2021/04/22 03:07:22;;;;;;;13.52;9.88;;;9.20;68.70;;;7.62;66.44;95976.16;5017504;28;20068;-71
2021/04/22 03:09:48;;;;;;;14.13;10.07;;;9.20;68.70;;;7.60;66.98;95978.94;5009300;28;20097;-70
2021/04/22 03:12:14;;;;;;;13.00;9.55;;;9.20;68.70;;;7.58;66.69;95978.31;5025384;28;20025;-72
2021/04/22 03:14:40;;;;;;;14.98;9.63;;;9.20;68.70;;;7.56;66.42;95972.44;5020718;28;20049;-70
2021/04/22 03:17:05;;;;;;;12.15;9.43;;;9.20;68.70;;;7.55;66.98;95972.59;5006829;28;20413;-69
2021/04/22 03:19:31;;;;;;;12.40;9.88;;;9.20;68.80;;;7.53;66.55;95978.03;5032883;28;20532;-70
2021/04/22 03:21:57;;;;;;;14.00;10.00;;;9.20;68.70;;;7.54;67.30;95989.31;4990233;28;20033;-70
2021/04/22 03:24:23;;;;;;;13.52;9.68;;;9.20;69.00;;;7.50;66.96;95982.78;5025402;28;20037;-69
2021/04/22 03:26:48;;;;;;;12.60;9.90;;;9.10;69.10;;;7.51;66.63;95984.41;5040691;28;20029;-69
2021/04/22 03:29:14;;;;;;;13.38;10.10;;;9.10;69.40;;;7.52;67.32;95996.53;5024939;28;20696;-70
2021/04/22 03:31:40;;;;;;;14.93;10.55;;;9.10;69.70;;;7.49;67.28;96002.09;4975110;28;20486;-70
2021/04/22 03:34:05;;;;;;;14.90;10.15;;;9.10;69.80;;;7.49;67.42;96002.09;5008147;28;20029;-70
2021/04/22 03:36:31;;;;;;;17.10;11.15;;;9.10;69.90;;;7.48;67.34;96011.75;5006611;28;20199;-71
2021/04/22 03:38:57;;;;;;;18.52;10.38;;;9.10;70.00;;;7.46;67.26;96002.41;5008905;28;20077;-70
2021/04/22 03:41:23;;;;;;;14.93;10.98;;;9.00;70.20;;;7.43;67.37;96011.44;5007847;28;20064;-71
2021/04/22 03:43:49;;;;;;;14.90;11.35;;;9.10;70.40;;;7.42;67.53;96006.38;5024110;28;20033;-71
2021/04/22 03:46:14;;;;;;;16.40;12.10;;;9.00;70.90;;;7.39;67.39;96015.38;4991325;28;20156;-71
2021/04/22 03:48:40;;;;;;;15.45;11.40;;;8.90;70.80;;;7.37;67.67;96010.31;5026179;28;20177;-71
2021/04/22 03:51:06;;;;;;;15.95;11.88;;;9.00;70.90;;;7.34;68.10;96013.28;5038247;28;20389;-71
2021/04/22 03:53:32;;;;;;;16.85;12.57;;;8.90;70.90;;;7.31;67.78;96016.25;5023698;28;20050;-70
2021/04/22 03:55:57;;;;;;;17.42;11.45;;;8.90;70.90;;;7.31;67.48;96023.28;5005774;28;20535;-71
2021/04/22 03:58:23;;;;;;;16.08;12.45;;;8.90;71.10;;;7.30;67.83;96030.31;5025465;28;20528;-71
2021/04/22 04:00:49;;;;;;;16.73;11.95;;;9.00;71.20;;;7.30;68.03;96029.50;5025124;28;20520;-71
2021/04/22 04:03:14;;;;;;;14.88;11.13;;;8.90;71.30;;;7.29;68.26;96031.31;4974363;28;20037;-70
2021/04/22 04:05:40;;;;;;;17.58;11.80;;;8.80;71.80;;;7.30;67.93;96030.31;4990534;28;20042;-71
2021/04/22 04:08:06;;;;;;;17.73;11.80;;;8.80;71.80;;;7.31;68.66;96039.78;5024977;28;20032;-70
2021/04/22 04:10:32;;;;;;;18.35;11.80;;;8.80;71.90;;;7.32;68.20;96036.19;5025552;28;20146;-71
2021/04/22 04:12:58;;;;;;;14.45;11.35;;;8.90;71.90;;;7.34;68.99;96031.59;5006906;28;20095;-75
2021/04/22 04:15:24;;;;;;;15.32;11.52;;;9.00;71.60;;;7.36;68.75;96045.31;5004730;28;20036;-70
2021/04/22 04:17:49;;;;;;;16.50;11.80;;;9.00;71.60;;;7.37;68.02;96044.34;4987737;28;20038;-74
2021/04/22 04:20:15;;;;;;;18.20;11.98;;;9.00;71.60;;;7.37;68.17;96052.19;5006604;28;20601;-70
2021/04/22 04:22:41;;;;;;;15.52;11.38;;;9.10;71.60;;;7.38;68.82;96051.19;5022676;28;20442;-70
2021/04/22 04:25:09;;;;;;;17.25;11.63;;;9.00;71.90;;;7.41;69.80;96047.41;5024513;28;20049;-70
2021/04/22 04:27:36;;;;;;;17.33;12.52;;;9.00;72.00;;;7.43;69.38;96049.88;4991356;28;20049;-70
2021/04/22 04:30:04;;;;;;;16.98;12.20;;;9.00;71.90;;;7.41;69.66;96054.47;5006248;28;20130;-70
2021/04/22 04:32:30;;;;;;;16.85;11.70;;;8.90;72.50;;;7.40;68.72;96050.22;5012919;28;20037;-72
2021/04/22 04:34:56;;;;;;;18.33;12.90;;;9.00;72.40;;;7.44;69.42;96056.72;5029218;28;20036;-72
2021/04/22 04:37:21;;;;;;;15.45;12.10;;;9.00;72.50;;;7.46;69.32;96054.75;4992435;28;20042;-71
2021/04/22 04:39:49;;;;;;;21.42;14.63;;;9.10;72.30;;;7.49;69.77;96070.16;5008572;28;20484;-70
2021/04/22 04:42:14;;;;;;;19.33;14.85;;;9.10;72.40;;;7.54;69.37;96065.22;5012984;28;20489;-72
2021/04/22 04:44:40;;;;;;;16.77;12.63;;;9.20;72.20;;;7.56;69.22;96069.28;4995128;28;20249;-72
2021/04/22 04:47:06;;;;;;;16.20;12.25;;;9.20;72.10;;;7.60;69.01;96070.56;5008052;28;20509;-72
2021/04/22 04:49:32;;;;;;;17.35;13.10;;;9.30;71.90;;;7.62;69.11;96073.81;5029055;28;20037;-72
2021/04/22 04:51:57;;;;;;;18.00;13.68;;;9.30;71.80;;;7.65;69.59;96076.09;5029085;28;20456;-72
2021/04/22 04:54:23;;;;;;;19.10;13.90;;;9.40;71.50;;;7.69;69.65;96084.41;5012458;28;20433;-72
2021/04/22 04:56:49;;;;;;;26.80;13.25;;;9.40;71.60;;;7.73;69.62;96087.53;5028079;28;20433;-71
2021/04/22 04:59:15;;;;;;;16.98;13.00;;;9.50;71.30;;;7.75;69.53;96083.75;4996036;28;20721;-72
2021/04/22 05:01:40;;;;;;;20.15;12.20;;;9.50;71.30;;;7.78;69.58;96085.22;4998021;28;20038;-71
2021/04/22 05:04:06;;;;;;;17.73;12.68;;;9.60;71.30;;;7.82;69.34;96087.31;5030578;28;20025;-70
2021/04/22 05:06:32;;;;;;;17.25;12.90;;;9.60;71.10;;;7.83;69.62;96091.56;5022952;28;20124;-75
2021/04/22 05:08:58;;;;;;;19.00;13.50;;;9.60;71.10;;;7.88;69.00;96097.09;5012747;28;20029;-75
2021/04/22 05:11:23;;;;;;;19.80;13.40;;;9.70;70.80;;;7.96;69.37;96099.69;5027871;28;20261;-69
2021/04/22 05:13:49;;;;;;;18.13;13.85;;;9.80;70.50;;;8.01;69.17;96106.19;5028616;28;20525;-73
2021/04/22 05:16:15;;;;;;;20.50;14.25;;;9.80;70.30;;;8.06;68.88;96103.88;5029229;28;20056;-68
2021/04/22 05:18:41;;;;;;;18.38;13.00;;;9.90;70.40;;;8.07;69.54;96108.94;5012241;28;20041;-71
2021/04/22 05:21:07;;;;;;;16.60;13.55;;;9.80;70.70;;;8.13;68.90;96112.66;4995722;28;20059;-71
2021/04/22 05:23:33;;;;;;;18.67;14.07;;;9.90;70.70;;;8.18;69.18;96118.22;4995190;28;20118;-70
2021/04/22 05:25:58;;;;;;;16.70;12.85;;;10.10;70.30;;;8.23;69.43;96123.75;5028621;28;20038;-73
2021/04/22 05:28:24;;;;;;;19.15;13.57;;;10.10;70.40;;;8.29;69.09;96125.66;5010187;28;20108;-75
2021/04/22 05:30:50;;;;;;;15.30;12.30;;;10.10;69.90;;;8.36;69.02;96121.38;5023530;28;20046;-75
2021/04/22 05:33:16;;;;;;;18.90;12.85;;;10.10;69.80;;;8.39;69.26;96121.06;5013480;28;20070;-70
2021/04/22 05:35:42;;;;;;;17.75;13.30;;;10.10;69.90;;;8.43;69.29;96111.03;5008504;28;20061;-68
2021/04/22 05:38:08;;;;;;;18.15;12.73;;;10.20;69.70;;;8.48;68.61;96119.19;5008777;28;20106;-70
2021/04/22 05:40:34;;;;;;;19.30;13.52;;;10.30;69.20;;;8.50;68.75;96123.25;5010956;28;20449;-69
2021/04/22 05:43:00;;;;;;;18.13;13.55;;;10.30;69.40;;;8.55;68.72;96131.41;5005194;28;20057;-66
2021/04/22 05:45:25;;;;;;;20.55;15.25;;;10.40;68.90;;;8.60;68.95;96125.66;5025721;28;20076;-65
2021/04/22 05:47:51;;;;;;;21.70;15.05;;;10.50;68.80;;;8.67;68.48;96129.19;5023230;28;20026;-69
2021/04/22 05:50:17;;;;;;;19.45;14.05;;;10.60;68.80;;;8.74;68.62;96126.69;5027874;28;20032;-68
2021/04/22 05:52:43;;;;;;;20.77;13.20;;;10.70;68.40;;;8.82;68.72;96129.22;5019837;28;20045;-69
2021/04/22 05:55:10;;;;;;;28.83;21.80;;;10.70;68.30;;;8.92;68.36;96127.19;5010919;28;20041;-69
2021/04/22 05:57:35;;;;;;;20.13;14.18;;;10.80;68.10;;;9.01;68.20;96125.28;5027645;28;20436;-69
2021/04/22 06:00:03;;;;;;;18.33;13.20;;;11.10;67.30;;;9.10;67.91;96135.56;5027104;28;20038;-68
2021/04/22 06:02:29;;;;;;;19.33;13.60;;;11.10;67.10;;;9.18;68.17;96142.53;5030056;28;20075;-68
2021/04/22 06:04:55;;;;;;;20.10;13.77;;;11.20;67.00;;;9.26;68.05;96139.00;5021464;28;20033;-68
2021/04/22 06:07:21;;;;;;;16.73;13.05;;;11.20;66.80;;;9.35;67.69;96145.81;5027597;28;20381;-71
2021/04/22 06:09:46;;;;;;;17.85;13.43;;;11.20;66.40;;;9.43;67.77;96143.09;5030130;28;20068;-70
2021/04/22 06:12:12;;;;;;;16.88;12.75;;;11.30;66.60;;;9.53;67.48;96143.66;5027170;28;20119;-71
2021/04/22 06:14:38;;;;;;;18.75;13.13;;;11.50;65.90;;;9.59;67.60;96142.91;5027948;28;20036;-67
2021/04/22 06:17:04;;;;;;;16.77;12.82;;;11.60;65.70;;;9.66;66.95;96148.25;5027680;28;20111;-70
2021/04/22 06:19:29;;;;;;;17.58;12.43;;;11.60;65.70;;;9.67;66.80;96148.06;4990816;28;20787;-68
2021/04/22 06:21:55;;;;;;;18.55;13.38;;;11.60;65.90;;;9.75;67.36;96153.25;5014399;28;20053;-68
2021/04/22 06:24:21;;;;;;;18.60;13.60;;;11.60;66.00;;;9.82;66.67;96146.25;5028870;28;20037;-69
2021/04/22 06:26:48;;;;;;;18.33;14.02;;;11.90;65.50;;;9.93;67.19;96146.78;5027827;28;20030;-69
2021/04/22 06:29:13;;;;;;;19.50;14.48;;;11.90;65.10;;;10.04;67.40;96154.19;5027030;28;20615;-69
2021/04/22 06:31:39;;;;;;;17.25;14.27;;;12.10;65.30;;;10.12;67.01;96146.19;5010383;28;20037;-69
2021/04/22 06:34:05;;;;;;;17.88;13.77;;;12.10;65.20;;;10.22;67.27;96151.22;5027435;28;20055;-69
2021/04/22 06:36:31;;;;;;;17.20;13.05;;;12.10;64.50;;;10.27;66.65;96144.38;5026429;28;20084;-71
2021/04/22 06:38:56;;;;;;;21.27;15.30;;;12.10;64.50;;;10.32;65.65;96152.53;5026638;28;20042;-69
2021/04/22 06:41:22;;;;;;;19.95;14.95;;;12.30;64.00;;;10.39;65.86;96150.75;5010259;28;20053;-71
2021/04/22 06:43:48;;;;;;;19.30;14.63;;;12.30;63.50;;;10.47;66.25;96160.38;4998118;28;20033;-69
2021/04/22 06:46:15;;;;;;;19.33;14.02;;;12.40;63.40;;;10.57;65.26;96160.06;5010848;28;20045;-69
2021/04/22 06:48:40;;;;;;;20.83;14.95;;;12.50;62.20;;;10.64;64.80;96160.97;5028427;28;20497;-69
2021/04/22 06:51:08;;;;;;;22.98;15.30;;;12.60;62.50;;;10.66;64.60;96156.31;5028363;28;20092;-69
2021/04/22 06:53:34;;;;;;;18.05;14.27;;;12.50;62.10;;;10.75;64.41;96165.69;5025500;28;20036;-69
2021/04/22 06:56:00;;;;;;;21.08;15.57;;;12.80;62.00;;;10.82;64.96;96168.38;5010733;28;20072;-70
2021/04/22 06:58:26;;;;;;;27.40;20.27;;;12.60;61.50;;;10.92;63.78;96168.91;5027239;28;20104;-69
2021/04/22 07:00:52;;;;;;;23.77;18.45;;;13.10;60.90;;;11.03;64.03;96177.09;5028315;28;20029;-70
2021/04/22 07:03:19;;;;;;;20.35;15.50;;;13.30;60.50;;;11.16;63.99;96179.03;5025993;28;20068;-68
2021/04/22 07:05:45;;;;;;;22.00;15.77;;;13.40;59.10;;;11.22;63.18;96186.16;5024454;28;20068;-70
2021/04/22 07:08:11;;;;;;;22.10;17.17;;;13.30;59.60;;;11.28;63.71;96189.84;4995057;28;20042;-70
2021/04/22 07:10:37;;;;;;;19.73;14.48;;;13.40;59.60;;;11.34;63.25;96194.38;4994600;28;20389;-69
2021/04/22 07:13:03;;;;;;;20.83;15.02;;;13.60;59.60;;;11.48;63.78;96196.06;4977960;28;20042;-68
2021/04/22 07:15:29;;;;;;;36.78;25.90;;;13.90;58.40;;;11.73;63.85;96198.25;4977642;28;20107;-70
2021/04/22 07:17:55;;;;;;;28.73;19.90;;;14.60;57.80;;;12.00;63.50;96209.81;5009360;28;20061;-69
2021/04/22 07:20:22;;;;;;;19.42;14.32;;;14.80;56.30;;;12.22;62.61;96212.16;5026163;28;20025;-68
2021/04/22 07:22:48;;;;;;;19.85;14.65;;;15.10;54.30;;;12.37;62.25;96208.56;5030367;28;20060;-68
2021/04/22 07:25:15;;;;;;;16.00;13.18;;;15.00;54.50;;;12.51;62.08;96205.78;5009858;28;20034;-71
2021/04/22 07:27:41;;;;;;;16.42;13.10;;;15.20;54.10;;;12.66;61.40;96212.69;5009426;28;20034;-69
2021/04/22 07:30:07;;;;;;;17.67;13.90;;;15.60;52.80;;;12.79;61.10;96210.09;5025870;28;20052;-68
2021/04/22 07:32:33;;;;;;;24.08;15.45;;;15.60;51.80;;;12.96;61.18;96210.56;5025475;28;20086;-68
2021/04/22 07:34:59;;;;;;;18.80;15.02;;;15.80;52.80;;;13.12;60.53;96212.78;5010340;28;20033;-69
2021/04/22 07:37:25;;;;;;;16.50;13.45;;;15.80;51.90;;;13.26;60.06;96206.53;5025626;28;20124;-70
2021/04/22 07:39:50;;;;;;;17.48;14.02;;;16.10;50.90;;;13.37;59.67;96213.06;5010411;28;20032;-67
2021/04/22 07:42:16;;;;;;;19.17;13.65;;;16.00;50.10;;;13.43;58.90;96210.41;4993528;28;20589;-68
2021/04/22 07:44:42;;;;;;;20.85;15.65;;;16.10;50.30;;;13.56;58.95;96216.69;4993685;28;20523;-66
2021/04/22 07:47:08;;;;;;;18.40;13.45;;;16.40;50.10;;;13.70;58.42;96220.97;5027857;28;20045;-68
2021/04/22 07:49:37;;;;;;;17.80;13.73;;;16.60;49.70;;;13.85;56.79;96221.56;5027203;28;20042;-67
2021/04/22 07:52:03;;;;;;;17.77;13.27;;;16.60;48.90;;;13.96;57.92;96220.09;5025941;28;20072;-65
2021/04/22 07:54:28;;;;;;;18.15;14.90;;;16.80;48.70;;;14.13;57.47;96218.63;5025855;28;20116;-65
2021/04/22 07:56:54;;;;;;;17.27;14.63;;;17.20;47.90;;;14.33;57.52;96222.03;5018059;28;20557;-65
2021/04/22 07:59:20;;;;;;;16.60;14.52;;;17.40;47.20;;;14.55;57.80;96227.88;5009357;28;20053;-66
2021/04/22 08:01:46;;;;;;;19.15;13.95;;;17.80;47.30;;;14.76;56.32;96225.97;5018448;28;20018;-66
2021/04/22 08:04:11;;;;;;;17.05;12.70;;;17.90;45.80;;;14.85;56.05;96229.97;4994115;28;20072;-67
2021/04/22 08:06:37;;;;;;;17.30;13.57;;;17.80;45.80;;;15.02;55.87;96228.44;5031458;28;20168;-69
2021/04/22 08:09:03;;;;;;;17.70;13.95;;;18.20;45.30;;;15.17;55.95;96226.31;5031460;28;20170;-68
2021/04/22 08:11:29;;;;;;;19.77;15.40;;;18.40;45.60;;;15.38;55.36;96234.91;5030623;28;20029;-67
2021/04/22 08:13:55;;;;;;;21.98;16.08;;;18.70;44.30;;;15.57;55.07;96223.34;4997049;28;20184;-68
2021/04/22 08:16:20;;;;;;;24.45;17.42;;;18.90;43.40;;;15.79;54.21;96226.44;5029767;28;20057;-68
2021/04/22 08:18:46;;;;;;;29.92;21.13;;;19.20;42.30;;;16.03;53.60;96232.75;5012209;28;20038;-65
2021/04/22 08:21:12;;;;;;;16.98;14.30;;;19.70;41.70;;;16.18;53.96;96233.22;5026174;28;20036;-67
2021/04/22 08:23:38;;;;;;;16.40;14.05;;;19.20;41.80;;;16.24;53.53;96237.63;5028652;28;20034;-67
2021/04/22 08:26:08;;;;;;;19.40;14.23;;;19.10;42.40;;;16.31;50.21;96234.94;5029718;28;20587;-70
2021/04/22 08:28:34;;;;;;;18.95;14.77;;;19.40;41.70;;;16.43;51.66;96236.59;5013791;28;20037;-66
2021/04/22 08:31:04;;;;;;;17.50;15.00;;;19.50;41.90;;;16.58;50.90;96238.06;5029623;28;20124;-69
2021/04/22 08:33:31;;;;;;;17.13;14.10;;;19.60;41.00;;;16.70;51.74;96246.94;5011990;28;20068;-68
2021/04/22 08:35:57;;;;;;;17.77;13.95;;;19.50;41.80;;;16.74;50.96;96253.41;5034319;28;20069;-70
2021/04/22 08:38:23;;;;;;;18.20;15.02;;;19.30;41.80;;;16.62;50.59;96255.19;5029630;28;20509;-73
2021/04/22 08:40:49;;;;;;;18.48;15.45;;;18.80;42.20;;;16.51;50.31;96260.19;4997137;28;20033;-70
2021/04/22 08:43:15;;;;;;;19.45;14.93;;;18.60;42.20;;;16.39;49.84;96256.66;5028185;28;20420;-69
2021/04/22 08:45:41;;;;;;;21.13;16.27;;;18.30;42.80;;;16.35;50.39;96260.81;5012374;28;20045;-71
2021/04/22 08:48:07;;;;;;;19.92;15.70;;;18.50;43.30;;;16.34;49.63;96259.19;4996829;28;20040;-69
2021/04/22 08:50:34;;;;;;;18.20;15.80;;;18.70;42.90;;;16.29;50.44;96266.97;5029740;28;20057;-70
2021/04/22 08:53:06;;;;;;;22.85;17.17;;;18.50;43.10;;;16.24;49.84;96264.16;5027695;28;20037;-68
2021/04/22 08:55:34;;;;;;;18.42;16.13;;;18.50;43.70;;;16.29;49.67;96277.59;5029816;28;20536;-68
2021/04/22 08:58:01;;;;;;;17.70;15.50;;;18.80;42.70;;;16.30;49.94;96270.47;5030593;28;20049;-69
2021/04/22 09:00:30;;;;;;;17.85;15.95;;;18.80;42.70;;;16.31;50.57;96262.28;5013374;28;20108;-69
2021/04/22 09:02:56;;;;;;;20.35;15.85;;;18.70;43.00;;;16.33;49.52;96272.69;5025674;28;20041;-70
2021/04/22 09:05:22;;;;;;;20.88;17.10;;;18.70;42.90;;;16.40;49.18;96268.91;4992094;28;20040;-69
2021/04/22 09:07:48;;;;;;;18.38;14.60;;;18.90;42.00;;;16.42;49.50;96272.16;5026660;28;20026;-69
2021/04/22 09:10:19;;;;;;;17.73;13.45;;;19.10;41.60;;;16.51;47.41;96278.78;4996441;28;20056;-68
2021/04/22 09:13:16;;;;;;;17.15;14.43;;;19.10;40.60;;;16.67;47.75;96273.94;5028728;28;20535;-68
2021/04/22 09:15:44;;;;;;;18.70;14.13;;;19.60;40.40;;;16.75;48.12;96278.97;5011961;28;20049;-70
2021/04/22 09:18:18;;;;;;;17.08;14.20;;;19.60;39.60;;;16.89;47.13;96276.94;5012575;28;20029;-70
2021/04/22 09:20:49;;;;;;;17.02;14.95;;;19.60;39.80;;;16.97;46.67;96280.09;5009447;28;20145;-69
2021/04/22 09:23:27;;;;;;;19.08;14.88;;;19.70;39.50;;;17.04;45.68;96275.53;5025883;28;20116;-71
2021/04/22 09:26:05;;;;;;;19.60;15.30;;;19.60;39.40;;;17.18;46.09;96272.66;5029752;28;20040;-68
2021/04/22 09:28:49;;;;;;;19.02;15.60;;;20.10;39.20;;;17.47;45.73;96285.16;5024807;28;20061;-66
2021/04/22 09:31:25;;;;;;;19.73;14.73;;;20.50;38.00;;;17.60;44.88;96278.78;5023835;28;20076;-64
2021/04/22 09:34:15;;;;;;;16.20;14.10;;;20.40;38.30;;;17.70;43.96;96277.25;5017864;28;20494;-66
2021/04/22 09:36:52;;;;;;;19.33;15.80;;;20.30;37.70;;;17.70;44.76;96279.91;4986198;28;20370;-64
2021/04/22 09:39:24;;;;;;;21.15;15.63;;;20.40;38.90;;;17.84;44.71;96279.66;5017474;28;20075;-68
2021/04/22 09:41:51;;;;;;;18.40;14.57;;;20.90;37.40;;;18.10;46.42;96265.91;4993297;28;20045;-70
2021/04/22 09:44:18;;;;;;;17.17;13.77;;;21.30;37.40;;;18.27;45.92;96282.00;4979727;28;20025;-70
2021/04/22 09:46:45;;;;;;;17.55;13.60;;;21.10;36.70;;;18.32;45.47;96272.25;4995943;28;20121;-71
2021/04/22 09:49:18;;;;;;;17.75;13.45;;;21.00;36.20;;;18.34;43.30;96280.84;5012558;28;20041;-70
2021/04/22 09:51:48;;;;;;;18.33;14.02;;;20.90;37.30;;;18.15;44.56;96276.69;4998548;28;20026;-69
2021/04/22 09:54:21;;;;;;;14.95;13.45;;;20.00;38.40;;;18.04;43.56;96278.28;5009755;28;20098;-68
2021/04/22 09:56:54;;;;;;;17.90;13.85;;;20.20;37.90;;;18.03;43.76;96281.19;5019177;28;20065;-67
2021/04/22 09:59:27;;;;;;;18.05;13.85;;;20.30;38.10;;;18.06;43.70;96281.53;5044324;28;20640;-67
2021/04/22 10:02:11;;;;;;;16.52;13.52;;;20.50;37.50;;;17.97;43.43;96280.28;5028036;28;20105;-71
2021/04/22 10:04:45;;;;;;;18.17;14.50;;;20.30;38.00;;;17.85;43.54;96290.09;5028094;28;20390;-67
2021/04/22 10:07:28;;;;;;;19.48;15.38;;;20.20;37.60;;;17.79;42.71;96284.88;5012060;28;20112;-68
2021/04/22 10:09:59;;;;;;;16.48;14.77;;;19.80;37.70;;;17.66;43.60;96278.72;5008838;28;20045;-68
2021/04/22 10:12:34;;;;;;;19.35;16.42;;;19.80;37.80;;;17.52;43.99;96277.28;5018373;28;20549;-71